KERY

Luce County Airport

Newberry, Michigan, USA
METAR KERY 170555Z AUTO 07003KT 10SM CLR M18/M20 A3025 RMK AO2 T11831202 11140 21184 411051184
Observed Flight Rules
Dec-17 @ 05:55 UTC (24 minutes ago) Visual Flight Rules
Wind Visibility Clouds
70° at 3 knots 10 miles
  • Clear skies
Temperatures Readings
Current -18°C / 0°F
Dewpoint -20°C / -4°F
Humidity 84%
Altimeter 30.25" Hg
Pressure 1024 hPa
Elevation 265
METAR KERY 170555Z AUTO 07003KT 10SM CLR M18/M20 A3025 RMK AO2 T11831202 11140 21184 411051184
Observed Flight Rules
Dec-17 @ 05:55 UTC
(24 minutes ago)
VFR
Wind Visibility
70° at 3 knots 10 miles
Clouds
  • Clear skies
Temperature Dewpoint
-18°C / 0°F -20°C / -4°F
Humidity Altimeter Pressure
84% 30.25" Hg 1024 hPa